Terminal Aerodrome Forecast
Issued by NWS Charleston, WV

Current Version | Previous Version | Graphics & Text | Print | Product List | Glossary On
Versions: 1 2 3 4 5 6 7 8 9 10 11 12 13 14 15 16 17 18 19 20 21 22 23
000
FTUS41 KRLX 111135
TAFHTS
TAF
KHTS 111135Z 1112/1212 11005KT P6SM BKN080
     FM112100 17007KT P6SM BKN045
     FM120200 19007KT 5SM -RA OVC045
     FM120600 21007KT 2SM -RA OVC015
     FM120900 22005KT 3SM -RA OVC008=

USA.gov is the U.S. government's official web portal to all federal, state and local government web resources and services.